createdAt,value
2023-04-27T05:50:42.843Z,96954.81
2023-04-27T05:52:45.665Z,96960.47
2023-04-27T05:54:48.906Z,96957.75
2023-04-27T05:56:51.798Z,96963.66
2023-04-27T05:58:54.655Z,96966.09
2023-04-27T06:00:57.704Z,96967.78
2023-04-27T06:03:00.829Z,96970.81
2023-04-27T06:05:03.823Z,96967.25
2023-04-27T06:07:13.932Z,96974.41
2023-04-27T06:09:17.060Z,96977.38
2023-04-27T06:11:19.964Z,96983.44
2023-04-27T06:13:22.936Z,96984.44
2023-04-27T06:15:25.779Z,96996.06
2023-04-27T06:17:28.735Z,96988.84
2023-04-27T06:19:34.189Z,96986.34
2023-04-27T06:21:37.125Z,96989.81
2023-04-27T06:23:41.341Z,96993.66
2023-04-27T06:25:44.219Z,96999.97
2023-04-27T06:27:47.509Z,96989.72
2023-04-27T06:29:50.288Z,96990.44
2023-04-27T06:31:53.180Z,96989.81
2023-04-27T06:33:56.167Z,96990.53
2023-04-27T06:35:59.089Z,96991.75
2023-04-27T06:38:01.936Z,96988.78
2023-04-27T06:40:08.112Z,96987.06
2023-04-27T06:42:11.025Z,96984.94
2023-04-27T06:44:13.863Z,96985.28
2023-04-27T06:46:17.403Z,96983.19
2023-04-27T06:48:20.378Z,96987.28
2023-04-27T06:50:23.416Z,96985.22
2023-04-27T06:52:26.372Z,96975.13
2023-04-27T06:54:31.284Z,96975.50
2023-04-27T06:56:35.440Z,96981.41
2023-04-27T06:58:38.476Z,96975.25
2023-04-27T07:00:41.453Z,96971.44
2023-04-27T07:02:45.617Z,96974.31
2023-04-27T07:04:48.713Z,96981.88
2023-04-27T07:06:51.725Z,96986.50
2023-04-27T07:08:54.610Z,96985.50
2023-04-27T07:10:59.690Z,96981.19
2023-04-27T07:13:03.956Z,96989.19
2023-04-27T07:15:08.122Z,96992.47
2023-04-27T07:17:11.153Z,96986.50
2023-04-27T07:19:14.371Z,96992.75
2023-04-27T07:21:17.407Z,96990.31
2023-04-27T07:23:20.622Z,96988.00
2023-04-27T07:25:25.661Z,96988.16
2023-04-27T07:27:28.992Z,96986.50
2023-04-27T07:29:33.877Z,96987.44
2023-04-27T07:31:37.352Z,96975.94
2023-04-27T07:33:40.223Z,96973.06
2023-04-27T07:35:43.005Z,96976.53
2023-04-27T07:37:45.923Z,96965.28
2023-04-27T07:39:50.134Z,96970.25
2023-04-27T07:41:53.186Z,96965.34
2023-04-27T07:43:57.919Z,96960.81
2023-04-27T07:46:02.310Z,96960.00
2023-04-27T07:48:05.419Z,96965.34
2023-04-27T07:50:09.600Z,96960.81
2023-04-27T07:52:12.774Z,96961.63
2023-04-27T07:54:15.899Z,96971.88
2023-04-27T07:56:18.779Z,96966.66
2023-04-27T07:58:21.695Z,96967.03
2023-04-27T08:00:25.389Z,96961.50
2023-04-27T08:02:36.444Z,96963.13
2023-04-27T08:04:39.808Z,96967.41
2023-04-27T08:06:43.497Z,96969.03
2023-04-27T08:08:46.577Z,96970.31
2023-04-27T08:10:49.480Z,96967.03
2023-04-27T08:12:52.609Z,96972.81
2023-04-27T08:14:55.866Z,96964.81
2023-04-27T08:16:59.062Z,96968.75
2023-04-27T08:19:03.458Z,96971.44
2023-04-27T08:21:06.407Z,96973.06
2023-04-27T08:23:09.316Z,96957.84
2023-04-27T08:25:12.338Z,96956.59
2023-04-27T08:27:15.525Z,96951.84
2023-04-27T08:29:27.040Z,96953.25
2023-04-27T08:31:30.823Z,96952.81
2023-04-27T08:33:33.901Z,96958.50
2023-04-27T08:35:38.123Z,96949.44
2023-04-27T08:37:42.337Z,96951.69
2023-04-27T08:39:45.257Z,96956.56
2023-04-27T08:41:48.251Z,96949.72
2023-04-27T08:43:53.810Z,96952.97
2023-04-27T08:45:56.728Z,96953.19
2023-04-27T08:47:59.807Z,96954.63
2023-04-27T08:50:03.370Z,96946.75
2023-04-27T08:52:12.526Z,96954.88
2023-04-27T08:54:15.543Z,96957.72
2023-04-27T08:56:18.365Z,96955.16
2023-04-27T08:58:21.334Z,96954.25
2023-04-27T09:00:26.593Z,96945.78
2023-04-27T09:02:30.246Z,96949.84
2023-04-27T09:04:39.457Z,96952.31
2023-04-27T09:06:42.978Z,96951.28
2023-04-27T09:08:48.877Z,96944.31
2023-04-27T09:10:52.861Z,96943.47
2023-04-27T09:12:57.925Z,96943.47
2023-04-27T09:15:03.819Z,96947.56
2023-04-27T09:17:06.604Z,96945.94
2023-04-27T09:19:09.586Z,96949.66
2023-04-27T09:21:12.528Z,96946.13
2023-04-27T09:23:28.024Z,96947.56
2023-04-27T09:25:33.638Z,96947.09
2023-04-27T09:27:39.344Z,96948.72
2023-04-27T09:29:42.545Z,96945.00
2023-04-27T09:31:45.622Z,96938.50
2023-04-27T09:33:56.779Z,96949.75
2023-04-27T09:36:01.002Z,96945.47
2023-04-27T09:38:04.233Z,96933.50
2023-04-27T09:40:09.272Z,96924.78
2023-04-27T09:42:14.021Z,96930.50
2023-04-27T09:44:17.639Z,96926.31
2023-04-27T09:46:21.819Z,96925.03
2023-04-27T09:48:26.244Z,96923.78
2023-04-27T09:50:29.142Z,96930.28
2023-04-27T09:52:33.256Z,96941.78
2023-04-27T09:54:37.558Z,96938.06
2023-04-27T09:56:53.642Z,96935.16
2023-04-27T09:59:17.476Z,96938.78
2023-04-27T10:01:28.152Z,96923.31
2023-04-27T10:03:34.319Z,96914.84
2023-04-27T10:05:58.641Z,96918.09
2023-04-27T10:08:01.836Z,96924.03
2023-04-27T10:10:05.651Z,96920.31
2023-04-27T10:12:16.783Z,96914.97
2023-04-27T10:14:22.631Z,96914.97
2023-04-27T10:16:25.678Z,96908.00
2023-04-27T10:18:31.011Z,96907.63
2023-04-27T10:20:35.911Z,96908.91
2023-04-27T10:22:40.768Z,96913.22
2023-04-27T10:24:44.223Z,96907.88
2023-04-27T10:26:49.166Z,96904.72
2023-04-27T10:29:07.380Z,96904.72
2023-04-27T10:31:12.634Z,96908.44
2023-04-27T10:33:18.784Z,96904.97
2023-04-27T10:35:22.810Z,96911.09
2023-04-27T10:37:38.973Z,96911.94
2023-04-27T10:39:47.938Z,96905.19
2023-04-27T10:41:53.969Z,96905.78
2023-04-27T10:43:56.964Z,96899.84
2023-04-27T10:46:09.172Z,96905.44
2023-04-27T10:48:15.689Z,96901.38
2023-04-27T10:50:18.797Z,96901.94
2023-04-27T10:52:21.762Z,96896.03
2023-04-27T10:54:28.182Z,96900.91
2023-04-27T10:56:31.255Z,96889.75
2023-04-27T10:58:47.451Z,96893.47
2023-04-27T11:00:52.589Z,96887.06
2023-04-27T11:02:56.169Z,96892.97
2023-04-27T11:05:00.619Z,96897.06
2023-04-27T11:07:04.762Z,96886.72
2023-04-27T11:09:07.811Z,96889.16
2023-04-27T11:11:17.947Z,96896.94
2023-04-27T11:13:21.999Z,96889.16
2023-04-27T11:15:24.756Z,96894.25
2023-04-27T11:17:30.862Z,96891.16
2023-04-27T11:19:33.998Z,96883.69
2023-04-27T11:21:38.477Z,96890.19
2023-04-27T11:23:42.373Z,96880.88
2023-04-27T11:25:45.117Z,96869.94
2023-04-27T11:27:48.948Z,96871.38
2023-04-27T11:29:51.860Z,96870.31
2023-04-27T11:31:54.816Z,96871.13
2023-04-27T11:33:57.810Z,96870.06
2023-04-27T11:36:01.333Z,96868.53
2023-04-27T11:38:05.487Z,96867.84
2023-04-27T11:40:10.887Z,96874.13
2023-04-27T11:42:19.707Z,96868.66
2023-04-27T11:44:27.405Z,96866.91
2023-04-27T11:46:30.809Z,96863.97
2023-04-27T11:48:33.772Z,96859.00
2023-04-27T11:50:36.726Z,96860.69
2023-04-27T11:52:41.277Z,96868.22
2023-04-27T11:54:53.825Z,96864.06
2023-04-27T11:57:05.883Z,96863.56
2023-04-27T11:59:20.507Z,96865.53
2023-04-27T12:01:34.849Z,96858.41
2023-04-27T12:03:41.692Z,96855.81
2023-04-27T12:05:49.948Z,96856.16
2023-04-27T12:07:53.666Z,96858.69
2023-04-27T12:09:59.541Z,96860.09
2023-04-27T12:12:04.148Z,96850.19
2023-04-27T12:14:07.272Z,96854.47
2023-04-27T12:16:10.162Z,96852.63
2023-04-27T12:18:13.038Z,96854.47
2023-04-27T12:20:16.150Z,96851.31
2023-04-27T12:22:18.962Z,96849.44
2023-04-27T12:24:22.014Z,96857.25
2023-04-27T12:26:26.586Z,96847.09
2023-04-27T12:28:29.906Z,96861.88
2023-04-27T12:30:32.699Z,96859.78
2023-04-27T12:32:36.193Z,96857.97
2023-04-27T12:34:42.388Z,96853.44
2023-04-27T12:36:45.441Z,96854.25
2023-04-27T12:38:48.461Z,96848.66
2023-04-27T12:40:51.800Z,96854.00
2023-04-27T12:42:56.209Z,96855.31
2023-04-27T12:44:59.699Z,96845.91
2023-04-27T12:47:02.567Z,96850.69
2023-04-27T12:49:06.503Z,96853.59
2023-04-27T12:51:09.506Z,96851.19
2023-04-27T12:53:12.508Z,96850.38
2023-04-27T12:55:31.401Z,96850.38
2023-04-27T12:57:35.147Z,96840.47
2023-04-27T12:59:39.931Z,96837.88
2023-04-27T13:01:45.021Z,96848.56
2023-04-27T13:03:48.874Z,96841.34
2023-04-27T13:05:52.209Z,96845.66
2023-04-27T13:07:54.985Z,96837.72
2023-04-27T13:09:57.795Z,96831.88
2023-04-27T13:12:01.738Z,96833.50
2023-04-27T13:14:05.215Z,96830.81
2023-04-27T13:16:10.179Z,96833.84
2023-04-27T13:18:13.199Z,96831.72
2023-04-27T13:20:16.248Z,96826.72
2023-04-27T13:22:20.925Z,96826.78
2023-04-27T13:24:24.582Z,96835.16
2023-04-27T13:26:29.661Z,96835.47
2023-04-27T13:28:32.636Z,96829.63
2023-04-27T13:30:35.733Z,96823.56
2023-04-27T13:32:39.857Z,96826.28
2023-04-27T13:34:43.066Z,96827.66
2023-04-27T13:36:47.278Z,96825.53
2023-04-27T13:38:51.959Z,96814.91
2023-04-27T13:40:55.114Z,96824.63
2023-04-27T13:42:59.389Z,96816.75
2023-04-27T13:45:02.125Z,96823.47
2023-04-27T13:47:05.353Z,96818.34
2023-04-27T13:49:10.919Z,96821.28
2023-04-27T13:51:14.169Z,96815.13
2023-04-27T13:53:17.151Z,96811.13
2023-04-27T13:55:20.120Z,96808.44
2023-04-27T13:57:22.974Z,96816.25
2023-04-27T13:59:25.879Z,96813.00
2023-04-27T14:01:30.014Z,96813.00
2023-04-27T14:03:33.786Z,96813.00
2023-04-27T14:05:38.217Z,96812.53
2023-04-27T14:07:41.608Z,96804.47
2023-04-27T14:09:44.900Z,96803.69
2023-04-27T14:11:56.579Z,96810.41
2023-04-27T14:14:00.223Z,96802.63
2023-04-27T14:16:04.219Z,96812.53
2023-04-27T14:18:09.460Z,96812.53
2023-04-27T14:20:12.818Z,96799.34
2023-04-27T14:22:17.119Z,96801.47
2023-04-27T14:24:21.008Z,96794.25
2023-04-27T14:26:23.887Z,96801.34
2023-04-27T14:28:28.857Z,96794.50
2023-04-27T14:30:33.954Z,96787.59
2023-04-27T14:32:37.535Z,96798.31
2023-04-27T14:34:41.078Z,96791.66
2023-04-27T14:36:44.121Z,96802.38
2023-04-27T14:38:48.473Z,96802.69
2023-04-27T14:40:51.623Z,96796.03
2023-04-27T14:42:54.644Z,96797.91
2023-04-27T14:44:57.356Z,96800.06
2023-04-27T14:47:00.442Z,96791.81
2023-04-27T14:49:03.253Z,96788.38
2023-04-27T14:51:06.562Z,96798.56
2023-04-27T14:53:09.569Z,96802.41
2023-04-27T14:55:15.121Z,96793.84
2023-04-27T14:57:18.220Z,96798.44
2023-04-27T14:59:22.162Z,96788.59
2023-04-27T15:01:24.939Z,96794.78
2023-04-27T15:03:28.247Z,96792.63
2023-04-27T15:05:31.647Z,96787.00
2023-04-27T15:07:34.697Z,96789.69
2023-04-27T15:09:37.613Z,96795.84
2023-04-27T15:11:41.727Z,96791.84
2023-04-27T15:13:44.501Z,96794.50
2023-04-27T15:15:47.428Z,96795.56
2023-04-27T15:17:50.633Z,96801.50
2023-04-27T15:19:53.475Z,96798.50
2023-04-27T15:21:56.622Z,96800.66
2023-04-27T15:23:59.849Z,96801.63
2023-04-27T15:26:05.782Z,96800.53
2023-04-27T15:28:10.605Z,96796.97
2023-04-27T15:30:16.249Z,96795.84
2023-04-27T15:32:19.237Z,96796.84
2023-04-27T15:34:22.344Z,96789.03
2023-04-27T15:36:26.678Z,96787.91
2023-04-27T15:38:30.184Z,96787.91
2023-04-27T15:40:35.523Z,96790.84
2023-04-27T15:42:38.616Z,96796.19
2023-04-27T15:44:43.296Z,96788.16
2023-04-27T15:46:46.394Z,96780.59
2023-04-27T15:48:49.464Z,96781.09
2023-04-27T15:50:52.697Z,96778.69
2023-04-27T15:52:55.782Z,96764.97
2023-04-27T15:54:58.554Z,96766.50
2023-04-27T15:57:04.198Z,96766.50
2023-04-27T15:59:07.968Z,96764.63
2023-04-27T16:01:12.225Z,96760.09
2023-04-27T16:03:15.414Z,96761.16
2023-04-27T16:05:25.836Z,96760.34
2023-04-27T16:07:28.783Z,96764.63
2023-04-27T16:09:31.774Z,96755.78
2023-04-27T16:11:34.708Z,96758.47
2023-04-27T16:13:37.569Z,96759.06
2023-04-27T16:15:40.899Z,96752.03
2023-04-27T16:17:47.337Z,96746.69
2023-04-27T16:19:50.804Z,96750.50
2023-04-27T16:21:53.736Z,96749.47
2023-04-27T16:23:56.763Z,96752.16
2023-04-27T16:25:59.580Z,96750.00
2023-04-27T16:28:02.397Z,96740.34
2023-04-27T16:30:07.531Z,96738.72
2023-04-27T16:32:11.096Z,96740.84
2023-04-27T16:34:15.748Z,96734.66
2023-04-27T16:36:18.739Z,96731.78
2023-04-27T16:38:21.581Z,96726.97
2023-04-27T16:40:24.410Z,96739.81
2023-04-27T16:42:30.309Z,96737.16
2023-04-27T16:44:33.491Z,96739.00
2023-04-27T16:46:36.501Z,96741.41
2023-04-27T16:48:39.519Z,96738.41
2023-04-27T16:50:44.092Z,96741.41
2023-04-27T16:52:47.791Z,96741.69
2023-04-27T16:54:51.079Z,96739.00
2023-04-27T16:56:55.226Z,96733.91
2023-04-27T16:58:58.594Z,96743.00
2023-04-27T17:01:01.626Z,96740.34
2023-04-27T17:03:04.624Z,96740.34
2023-04-27T17:05:08.471Z,96730.94
2023-04-27T17:07:12.857Z,96741.41
2023-04-27T17:09:16.531Z,96742.47
2023-04-27T17:11:19.858Z,96740.34
2023-04-27T17:13:22.770Z,96744.06
2023-04-27T17:15:26.540Z,96746.75
2023-04-27T17:17:29.486Z,96746.50
2023-04-27T17:19:32.758Z,96744.63
2023-04-27T17:21:35.535Z,96747.00
2023-04-27T17:23:41.699Z,96746.69
2023-04-27T17:25:44.669Z,96744.81
2023-04-27T17:27:47.546Z,96749.63
2023-04-27T17:29:51.803Z,96743.44
2023-04-27T17:31:54.802Z,96747.69
2023-04-27T17:33:57.674Z,96753.06
2023-04-27T17:36:00.729Z,96752.00
2023-04-27T17:38:03.640Z,96749.56
2023-04-27T17:40:09.546Z,96746.06
2023-04-27T17:42:12.906Z,96742.34
2023-04-27T17:44:16.597Z,96740.38
2023-04-27T17:46:19.484Z,96744.94
2023-04-27T17:48:22.653Z,96746.75
2023-04-27T17:50:25.967Z,96740.59
2023-04-27T17:52:28.675Z,96740.03
2023-04-27T17:54:31.968Z,96744.25
2023-04-27T17:56:36.586Z,96747.44
2023-04-27T17:58:39.549Z,96743.38
2023-04-27T18:00:43.775Z,96742.03
2023-04-27T18:02:48.529Z,96743.06
2023-04-27T18:04:52.713Z,96750.78
2023-04-27T18:06:56.214Z,96759.38
2023-04-27T18:09:00.264Z,96760.44
2023-04-27T18:11:03.448Z,96760.69
2023-04-27T18:13:07.728Z,96763.38
2023-04-27T18:15:11.551Z,96762.56
2023-04-27T18:17:14.549Z,96754.78
2023-04-27T18:19:17.964Z,96753.16
2023-04-27T18:21:20.916Z,96753.16
2023-04-27T18:23:23.901Z,96760.13
2023-04-27T18:25:26.818Z,96763.06
2023-04-27T18:27:31.757Z,96763.38
2023-04-27T18:29:35.871Z,96763.38
2023-04-27T18:31:38.590Z,96754.25
2023-04-27T18:33:41.457Z,96759.63
2023-04-27T18:35:44.253Z,96761.25
2023-04-27T18:37:48.259Z,96756.94
2023-04-27T18:39:52.863Z,96754.25
2023-04-27T18:41:57.079Z,96758.81
2023-04-27T18:44:04.581Z,96764.16
2023-04-27T18:46:08.814Z,96760.44
2023-04-27T18:48:11.799Z,96765.78
2023-04-27T18:50:14.751Z,96769.53
2023-04-27T18:52:17.805Z,96763.38
2023-04-27T18:54:21.067Z,96761.25
2023-04-27T18:56:24.179Z,96768.22
2023-04-27T18:58:26.971Z,96767.19
2023-04-27T19:00:30.841Z,96764.50
2023-04-27T19:02:35.192Z,96762.88
2023-04-27T19:04:38.717Z,96757.75
2023-04-27T19:06:42.538Z,96762.31
2023-04-27T19:08:46.115Z,96763.38
2023-04-27T19:10:51.633Z,96772.47
2023-04-27T19:12:55.981Z,96770.03
2023-04-27T19:14:59.715Z,96779.94
2023-04-27T19:17:02.870Z,96770.84
2023-04-27T19:19:07.144Z,96778.88
2023-04-27T19:21:10.265Z,96778.88
2023-04-27T19:23:13.578Z,96770.28
2023-04-27T19:25:16.612Z,96778.31
2023-04-27T19:27:19.589Z,96778.56
2023-04-27T19:29:24.442Z,96785.56
2023-04-27T19:31:27.358Z,96788.72
2023-04-27T19:33:30.581Z,96790.56
2023-04-27T19:35:40.995Z,96789.28
2023-04-27T19:37:44.049Z,96794.66
2023-04-27T19:39:46.882Z,96798.94
2023-04-27T19:41:49.706Z,96792.78
2023-04-27T19:43:52.675Z,96797.06
2023-04-27T19:45:55.587Z,96799.75
2023-04-27T19:47:58.452Z,96805.09
2023-04-27T19:50:01.475Z,96802.19
2023-04-27T19:52:06.525Z,96804.06
2023-04-27T19:54:09.497Z,96803.50
2023-04-27T19:56:12.268Z,96810.47
2023-04-27T19:58:15.089Z,96808.34
2023-04-27T20:00:18.333Z,96818.00
2023-04-27T20:02:21.585Z,96809.97
2023-04-27T20:04:24.775Z,96812.09
2023-04-27T20:06:28.246Z,96814.22
2023-04-27T20:08:34.002Z,96816.06
2023-04-27T20:10:36.949Z,96816.06
2023-04-27T20:12:54.373Z,96822.50
2023-04-27T20:14:59.313Z,96818.41
2023-04-27T20:17:02.935Z,96823.78
2023-04-27T20:19:06.320Z,96829.13
2023-04-27T20:21:09.342Z,96832.41
2023-04-27T20:23:14.285Z,96829.94
2023-04-27T20:25:19.575Z,96834.00
2023-04-27T20:27:24.025Z,96831.81
2023-04-27T20:29:27.308Z,96838.22
2023-04-27T20:31:30.393Z,96834.97
2023-04-27T20:33:33.497Z,96840.59
2023-04-27T20:35:37.183Z,96834.66
2023-04-27T20:37:43.987Z,96839.47
2023-04-27T20:39:46.905Z,96837.00
2023-04-27T20:41:51.228Z,96833.75
2023-04-27T20:43:54.054Z,96827.03
2023-04-27T20:45:57.061Z,96837.75
2023-04-27T20:48:03.162Z,96829.66
2023-04-27T20:50:07.734Z,96833.94
